Flight Track Log - Related Links

Times and Time Zones

All times are in EDT time to prevent confusion due to time zone crossing. See the RPA3228 flight status page for this flight to view local times or setup timezone preferences in your user account.

Time Position Orientation Groundspeed Altitude Reporting Facility
EDT Latitude Longitude Course Direction KTS MPH feet Rate Location/Type
Sat 10:21:26 AM 38.8167 -77.0333 61° Northeast 148 170 1,700  Level Potomac TRACON
Sat 10:22:19 AM 38.7667 -77.0333 180° South 200 230 3,200 1,699 Climbing Potomac TRACON
Sat 10:23:00 AM 38.9665 -76.6837 67° East  Level FlightAware Approximate
Sat 10:23:19 AM 38.7000 -77.0167 169° South 254 292 4,900  Level Potomac TRACON
Sat 10:24:00 AM 39.0153 -76.5695 57° Northeast  Level FlightAware Approximate
Sat 10:24:19 AM 38.6833 -76.9500 108° East 282 325 5,000  Level Potomac TRACON
Sat 10:25:00 AM 39.0593 -76.4517 63° Northeast  Level FlightAware Approximate
Sat 10:25:13 AM 38.7333 -76.9167 27° Northeast 277 319 7,300  Level Potomac TRACON
Sat 10:26:00 AM 39.1080 -76.3369 61° Northeast  Level FlightAware Approximate
Sat 10:27:19 AM 38.8944 -76.8292 23° Northeast 306 352 11,700  Level Washington Center
Sat 10:29:21 AM 38.9842 -76.6117 62° Northeast 321 369 15,600 1,978 Climbing Washington Center
Sat 10:30:21 AM 39.0331 -76.4975 61° Northeast 337 388 17,700 1,729 Climbing Washington Center
Sat 10:31:19 AM 39.0839 -76.3806 61° Northeast 355 409 19,000 1,373 Climbing Washington Center
Sat 10:32:19 AM 39.1367 -76.2581 61° Northeast 367 422 20,400 1,388 Climbing Washington Center
Sat 10:33:20 AM 39.1664 -76.1322 73° East 387 445 21,800 1,328 Climbing Washington Center
Sat 10:34:21 AM 39.1794 -75.9878 83° East 398 458 23,100 1,400 Climbing Washington Center
Sat 10:35:20 AM 39.2153 -75.8514 71° East 404 465 24,600 1,311 Climbing Washington Center
Sat 10:36:20 AM 39.2967 -75.7497 44° Northeast 389 448 25,700 992 Climbing Washington Center
Sat 10:37:21 AM 39.3803 -75.6400 45° Northeast 400 460 26,600 1,091 Climbing Washington Center
Sat 10:38:21 AM 39.4636 -75.5297 46° Northeast 413 475 27,900 1,273 Climbing Washington Center
Sat 10:40:39 AM 39.6717 -75.2589 45° Northeast 439 505 30,800 939 Climbing New York Center
Sat 10:41:39 AM 39.7467 -75.1475 49° Northeast 444 511 31,000 100 Climbing New York Center
Sat 10:42:39 AM 39.8303 -75.0283 48° Northeast 444 511 31,000  Level New York Center
Sat 10:43:39 AM 39.9161 -74.9064 47° Northeast 451 519 31,000  Level New York Center
Sat 10:44:41 AM 40.0142 -74.7767 45° Northeast 451 519 31,000  Level New York Center
Sat 10:45:41 AM 40.0975 -74.6539 48° Northeast 451 519 31,000  Level New York Center
Sat 10:46:39 AM 40.1983 -74.5644 34° Northeast 438 504 31,000  Level New York Center
Sat 10:47:40 AM 40.2978 -74.5236 17° North 420 483 31,000  Level New York Center
Sat 10:48:39 AM 40.4114 -74.4917 12° North 409 471 31,000  Level New York Center
Sat 10:51:43 AM 40.7694 -74.4544 North 402 463 31,000  Level Boston Center
Sat 10:52:43 AM 40.8844 -74.4222 12° North 402 463 31,000  Level Boston Center
Sat 10:53:43 AM 40.9936 -74.3869 14° North 408 470 31,000  Level Boston Center
Sat 10:54:43 AM 41.1108 -74.3519 13° North 437 503 31,000  Level Boston Center
Sat 10:55:43 AM 41.2239 -74.3167 13° North 415 478 31,000  Level Boston Center
Sat 10:56:43 AM 41.3350 -74.2731 16° North 415 478 31,000  Level Boston Center
Sat 10:57:43 AM 41.4461 -74.2347 14° North 415 478 31,000  Level Boston Center
Sat 10:58:43 AM 41.5614 -74.1989 13° North 415 478 31,000  Level Boston Center
Sat 10:59:43 AM 41.6703 -74.1631 14° North 415 478 31,000  Level Boston Center
Sat 11:00:43 AM 41.7750 -74.1269 14° North 399 459 31,000  Level Boston Center
Sat 11:01:43 AM 41.8842 -74.0881 15° North 394 453 31,000  Level Boston Center
Sat 11:02:43 AM 41.9950 -74.0519 14° North 394 453 31,000 -350 Level Boston Center
Sat 11:03:43 AM 42.1003 -73.9875 24° Northeast 399 459 30,300 -1,050 Descending Boston Center
Sat 11:04:43 AM 42.1950 -73.8972 35° Northeast 406 467 28,900 -1,045 Descending Boston Center
Sat 11:05:55 AM 42.3044 -73.8239 26° Northeast 406 467 28,000 -818 Descending Boston Center
Sat 11:06:55 AM 42.4133 -73.7928 12° North 391 450 27,100 -1,000 Descending Boston Center
Sat 11:07:55 AM 42.5178 -73.7583 14° North 386 444 26,000 -550 Descending Boston Center
Sat 11:08:55 AM 42.6369 -73.7214 13° North 381 438 26,000  Level Boston Center
Sat 11:09:55 AM 42.7436 -73.6925 11° North 402 463 26,000 -250 Level Boston Center
Sat 11:10:55 AM 42.8567 -73.6581 13° North 417 480 25,500 -1,000 Descending Boston Center
Sat 11:11:55 AM 42.9633 -73.6233 13° North 384 442 24,000 -909 Descending Boston Center
Sat 11:13:07 AM 43.0614 -73.5911 14° North 370 426 23,500 -455 Descending Boston Center
Sat 11:14:07 AM 43.1786 -73.5561 12° North 350 403 23,000 -227 Descending Boston Center
Sat 11:15:19 AM 43.2914 -73.5183 14° North 350 403 23,000 -208 Level Boston Center
Sat 11:16:31 AM 43.3875 -73.4886 13° North 350 403 22,500 -1,182 Descending Boston Center
Sat 11:17:31 AM 43.4983 -73.4561 12° North 350 403 20,400 -1,900 Descending Boston Center
Sat 11:18:31 AM 43.5903 -73.4289 12° North 340 391 18,700 -1,550 Descending Boston Center
Sat 11:19:31 AM 43.6781 -73.4047 11° North 335 386 17,300 -1,550 Descending Boston Center
Sat 11:20:31 AM 43.7658 -73.3772 13° North 329 379 15,600 -1,727 Descending Boston Center
Sat 11:21:43 AM 43.8681 -73.3444 13° North 318 366 13,500 -1,591 Descending Boston Center
Sat 11:22:43 AM 43.9533 -73.3600 353° North 306 352 12,100 -750 Descending Boston Center
Sat 11:23:43 AM 44.0325 -73.3900 345° North 301 346 12,000 -450 Descending Boston Center
Sat 11:24:43 AM 44.1031 -73.4000 354° North 288 331 11,200 -1,250 Descending Boston Center
Sat 11:25:43 AM 44.1803 -73.3894 North 270 311 9,500 -1,550 Descending Boston Center
Sat 11:26:43 AM 44.2553 -73.3792 North 275 316 8,100 -1,000 Descending Boston Center
Sat 11:27:43 AM 44.3200 -73.3686 North 250 288 7,500 -1,050 Descending Boston Center
Sat 11:28:43 AM 44.3806 -73.3581 North 219 252 6,000 -1,250 Descending Boston Center
Sat 11:29:43 AM 44.4369 -73.3500 North 214 246 5,000 -1,100 Descending Boston Center
Sat 11:30:43 AM 44.4764 -73.3769 334° Northwest 170 196 3,800 -1,350 Descending Boston Center
Sat 11:31:43 AM 44.5139 -73.3775 359° North 160 184 2,300 -1,500 Descending Boston Center

Login

Don't have an account? Register now (free) for customized features, flight alerts, and more!